Time;durP1;ratioP1;P1;durP2;ratioP2;P2;SDS_P1;SDS_P2;PMS_P1;PMS_P2;Temp;Humidity;BMP_temperature;BMP_pressure;BME280_temperature;BME280_humidity;BME280_pressure;Samples;Min_cycle;Max_cycle;Signal;HPM_P1;HPM_P2
2022/04/23 00:00:50;;;;;;;20.33;18.25;;;12.80;99.70;;;;;;5135964;27;20220;-68
2022/04/23 00:03:17;;;;;;;24.58;19.13;;;12.70;99.50;;;;;;5135532;27;20250;-68
2022/04/23 00:05:44;;;;;;;21.40;18.92;;;12.70;99.80;;;;;;5135598;27;20201;-69
2022/04/23 00:08:12;;;;;;;21.92;19.25;;;12.60;99.90;;;;;;5135274;27;20692;-68
2022/04/23 00:10:39;;;;;;;20.73;18.52;;;12.70;99.90;;;;;;5135567;27;20197;-68
2022/04/23 00:13:06;;;;;;;22.90;19.17;;;12.70;99.90;;;;;;5135129;27;20231;-68
2022/04/23 00:15:37;;;;;;;20.77;18.60;;;12.70;99.90;;;;;;5135407;27;20207;-68
2022/04/23 00:18:04;;;;;;;22.77;20.02;;;12.60;99.90;;;;;;5135204;27;20243;-68
2022/04/23 00:20:31;;;;;;;23.30;20.10;;;12.70;99.90;;;;;;5135187;27;20937;-68
2022/04/23 00:22:59;;;;;;;20.90;18.70;;;12.60;99.90;;;;;;5135217;27;20227;-69
2022/04/23 00:25:28;;;;;;;21.40;18.90;;;12.60;99.90;;;;;;5135214;27;20296;-68
2022/04/23 00:27:54;;;;;;;26.55;19.10;;;12.60;99.90;;;;;;5135226;27;20196;-68
2022/04/23 00:30:21;;;;;;;23.38;18.65;;;12.60;99.90;;;;;;5134979;27;20299;-68
2022/04/23 00:32:48;;;;;;;21.45;18.77;;;12.50;99.90;;;;;;5134985;27;20227;-68
2022/04/23 00:35:15;;;;;;;22.42;20.02;;;12.50;99.90;;;;;;5134671;27;20211;-68
2022/04/23 00:37:42;;;;;;;21.42;19.02;;;12.50;99.90;;;;;;5135025;27;20215;-68
2022/04/23 00:40:16;;;;;;;22.73;20.25;;;12.50;99.90;;;;;;5134783;27;20220;-68
2022/04/23 00:42:48;;;;;;;23.20;19.80;;;12.40;99.90;;;;;;5134729;27;20769;-68
2022/04/23 00:45:15;;;;;;;21.23;18.70;;;12.40;99.90;;;;;;5134725;27;20197;-68
2022/04/23 00:47:41;;;;;;;19.58;17.05;;;12.30;99.90;;;;;;5134909;27;20210;-68
2022/04/23 00:50:09;;;;;;;19.27;17.20;;;12.30;99.90;;;;;;5134856;27;20203;-68
2022/04/23 00:52:36;;;;;;;21.80;18.70;;;12.20;99.90;;;;;;5134548;27;20307;-68
2022/04/23 00:55:04;;;;;;;22.35;17.98;;;12.20;99.90;;;;;;5134638;27;20197;-68
2022/04/23 00:57:32;;;;;;;20.08;17.90;;;12.20;99.90;;;;;;5134821;27;20585;-68
2022/04/23 01:00:04;;;;;;;19.70;17.35;;;12.10;99.90;;;;;;5134558;27;20231;-68
2022/04/23 01:02:30;;;;;;;17.08;15.32;;;12.10;99.90;;;;;;5134437;27;20220;-67
2022/04/23 01:04:57;;;;;;;18.08;16.17;;;12.10;99.90;;;;;;5134541;27;20201;-68
2022/04/23 01:07:24;;;;;;;18.08;15.88;;;12.10;99.90;;;;;;5134506;27;20662;-68
2022/04/23 01:09:52;;;;;;;20.00;17.30;;;12.20;99.90;;;;;;5134764;27;20212;-68
2022/04/23 01:12:19;;;;;;;17.55;15.77;;;12.10;99.90;;;;;;5134435;28;20216;-68
2022/04/23 01:15:02;;;;;;;17.55;15.63;;;12.20;99.90;;;;;;5134130;28;20200;-68
2022/04/23 01:17:29;;;;;;;17.70;15.27;;;12.10;99.90;;;;;;5134400;28;20566;-68
2022/04/23 01:19:56;;;;;;;17.83;15.93;;;12.10;99.90;;;;;;5134429;28;20223;-68
2022/04/23 01:22:24;;;;;;;19.67;15.48;;;12.10;99.90;;;;;;5134464;28;20641;-68
2022/04/23 01:24:52;;;;;;;17.95;15.90;;;12.10;99.90;;;;;;5134013;28;20670;-68
2022/04/23 01:27:20;;;;;;;18.23;16.33;;;12.10;99.90;;;;;;5134449;28;20200;-68
2022/04/23 01:29:47;;;;;;;18.50;16.58;;;12.10;99.90;;;;;;5134393;28;20300;-68
2022/04/23 01:32:14;;;;;;;19.42;16.50;;;12.10;99.90;;;;;;5134476;28;20623;-68
2022/04/23 01:34:41;;;;;;;18.60;15.95;;;12.00;99.90;;;;;;5134240;28;20208;-68
2022/04/23 01:37:08;;;;;;;19.08;16.30;;;12.00;99.90;;;;;;5134354;28;20203;-68
2022/04/23 01:39:36;;;;;;;19.40;17.10;;;11.90;99.90;;;;;;5134185;28;20223;-68
2022/04/23 01:42:03;;;;;;;18.50;16.50;;;11.90;99.90;;;;;;5134275;28;20200;-67
2022/04/23 01:44:30;;;;;;;17.90;15.82;;;11.80;99.90;;;;;;5133937;28;20291;-68
2022/04/23 01:46:57;;;;;;;17.98;16.17;;;11.70;99.90;;;;;;5134299;28;20291;-68
2022/04/23 01:49:24;;;;;;;18.38;16.42;;;11.70;99.90;;;;;;5134248;28;20288;-68
2022/04/23 01:51:50;;;;;;;20.88;17.02;;;11.60;99.90;;;;;;5134444;28;20296;-68
2022/04/23 01:54:17;;;;;;;18.65;16.45;;;11.50;99.90;;;;;;5135847;27;20224;-67
2022/04/23 01:56:45;;;;;;;18.85;15.60;;;11.50;99.90;;;;;;5138124;27;20201;-68
2022/04/23 01:59:13;;;;;;;18.55;15.98;;;11.50;99.90;;;;;;5138064;27;20567;-68
2022/04/23 02:01:41;;;;;;;18.88;16.67;;;11.50;99.90;;;;;;5137922;27;20205;-68
2022/04/23 02:04:08;;;;;;;18.73;16.00;;;11.50;99.90;;;;;;5137849;27;20225;-67
2022/04/23 02:06:35;;;;;;;19.50;17.08;;;11.50;99.90;;;;;;5137859;27;20300;-68
2022/04/23 02:09:02;;;;;;;17.52;15.50;;;11.50;99.90;;;;;;5137927;27;20296;-67
2022/04/23 02:11:29;;;;;;;19.10;16.60;;;11.60;99.90;;;;;;5137714;27;20205;-68
2022/04/23 02:13:57;;;;;;;21.75;17.35;;;11.50;99.90;;;;;;5137630;27;20221;-68
2022/04/23 02:16:25;;;;;;;19.80;17.20;;;11.40;99.90;;;;;;5137730;27;20287;-68
2022/04/23 02:18:52;;;;;;;20.20;16.90;;;11.40;99.90;;;;;;5137774;27;20213;-68
2022/04/23 02:21:18;;;;;;;20.25;17.92;;;11.50;99.90;;;;;;5137306;27;20221;-68
2022/04/23 02:23:45;;;;;;;19.83;17.15;;;11.40;99.90;;;;;;5137454;27;20643;-68
2022/04/23 02:26:12;;;;;;;19.90;17.80;;;11.30;99.90;;;;;;5137701;27;20670;-68
2022/04/23 02:28:39;;;;;;;20.17;17.45;;;11.30;99.90;;;;;;5137478;27;20234;-68
2022/04/23 02:31:07;;;;;;;21.48;17.75;;;11.20;99.90;;;;;;5137574;27;20212;-68
2022/04/23 02:33:34;;;;;;;21.70;18.70;;;11.20;99.90;;;;;;5137166;27;20586;-68
2022/04/23 02:36:01;;;;;;;21.27;18.27;;;11.30;99.90;;;;;;5137706;27;20205;-67
2022/04/23 02:38:28;;;;;;;26.05;19.75;;;11.10;99.90;;;;;;5137414;27;20201;-67
2022/04/23 02:40:55;;;;;;;22.73;19.05;;;11.10;99.90;;;;;;5137247;27;20228;-68
2022/04/23 02:43:22;;;;;;;24.20;20.02;;;11.10;99.90;;;;;;5136942;27;20225;-68
2022/04/23 02:45:49;;;;;;;24.05;19.45;;;11.00;99.90;;;;;;5137245;27;20206;-68
2022/04/23 02:48:17;;;;;;;23.75;20.30;;;11.00;99.90;;;;;;5137087;27;20207;-68
2022/04/23 02:50:44;;;;;;;25.10;19.33;;;11.00;99.90;;;;;;5137377;27;20206;-67
2022/04/23 02:53:10;;;;;;;23.42;18.65;;;11.10;99.90;;;;;;5137149;27;20227;-68
2022/04/23 02:55:39;;;;;;;20.70;18.52;;;11.10;99.90;;;;;;5137105;27;20201;-68
2022/04/23 02:58:08;;;;;;;23.77;19.48;;;11.10;99.90;;;;;;5136835;27;20197;-68
2022/04/23 03:00:35;;;;;;;22.17;18.33;;;11.20;99.90;;;;;;5136813;27;20624;-68
2022/04/23 03:03:03;;;;;;;22.05;18.50;;;11.20;99.90;;;;;;5136722;27;20224;-68
2022/04/23 03:05:31;;;;;;;23.73;19.33;;;11.20;99.90;;;;;;5135698;27;20205;-68
2022/04/23 03:08:00;;;;;;;22.80;19.40;;;11.30;99.90;;;;;;5136598;27;20685;-68
2022/04/23 03:10:28;;;;;;;23.38;19.63;;;11.30;99.90;;;;;;5136853;27;20681;-68
2022/04/23 03:12:57;;;;;;;22.48;19.70;;;11.30;99.90;;;;;;5136527;27;20257;-67
2022/04/23 03:15:25;;;;;;;24.67;19.80;;;11.20;99.90;;;;;;5136572;27;20208;-68
2022/04/23 03:18:03;;;;;;;21.70;18.63;;;11.20;99.90;;;;;;5136590;27;20204;-68
2022/04/23 03:20:32;;;;;;;21.38;18.77;;;11.20;99.90;;;;;;5136556;27;20217;-68
2022/04/23 03:22:59;;;;;;;24.48;20.20;;;11.20;99.90;;;;;;5136220;27;20736;-68
2022/04/23 03:25:26;;;;;;;25.42;20.45;;;11.00;99.90;;;;;;5136620;27;20654;-68
2022/04/23 03:27:52;;;;;;;24.98;20.15;;;10.80;99.90;;;;;;5136337;27;20205;-67
2022/04/23 03:30:20;;;;;;;23.65;19.33;;;10.70;99.90;;;;;;5136316;27;20211;-68
2022/04/23 03:32:47;;;;;;;24.30;19.13;;;10.80;99.90;;;;;;5136265;27;20619;-68
2022/04/23 03:35:14;;;;;;;23.40;19.73;;;10.90;99.90;;;;;;5135945;27;20291;-67
2022/04/23 03:37:42;;;;;;;22.80;19.10;;;10.80;99.90;;;;;;5136352;27;20200;-68
2022/04/23 03:40:11;;;;;;;24.23;19.70;;;10.80;99.90;;;;;;5136273;27;20216;-69
2022/04/23 03:42:38;;;;;;;22.42;19.23;;;10.80;99.90;;;;;;5136278;27;20227;-68
2022/04/23 03:45:06;;;;;;;22.98;19.65;;;10.80;99.90;;;;;;5136007;27;20207;-68
2022/04/23 03:47:34;;;;;;;25.20;20.58;;;10.80;99.90;;;;;;5136044;27;20200;-68
2022/04/23 03:50:04;;;;;;;24.48;20.00;;;10.80;99.90;;;;;;5135859;27;20265;-68
2022/04/23 03:52:31;;;;;;;23.27;19.55;;;10.80;99.90;;;;;;5135808;27;20243;-68
2022/04/23 03:55:00;;;;;;;24.83;19.65;;;10.60;99.90;;;;;;5135761;27;20209;-68
2022/04/23 03:57:26;;;;;;;25.65;19.95;;;10.40;99.90;;;;;;5135832;27;20287;-68
2022/04/23 03:59:53;;;;;;;27.40;20.13;;;10.20;99.90;;;;;;5135498;27;20207;-68
2022/04/23 04:02:20;;;;;;;24.90;21.27;;;10.20;99.90;;;;;;5135596;27;20274;-68
2022/04/23 04:04:47;;;;;;;26.42;20.40;;;10.10;99.90;;;;;;5135732;27;20203;-68
2022/04/23 04:07:19;;;;;;;22.67;18.75;;;10.20;99.90;;;;;;5135625;27;20215;-69
2022/04/23 04:09:46;;;;;;;22.20;18.65;;;10.20;99.90;;;;;;5135604;27;20216;-68
2022/04/23 04:12:14;;;;;;;21.73;18.05;;;10.30;99.90;;;;;;5135236;27;20330;-68
2022/04/23 04:14:42;;;;;;;22.15;18.05;;;10.30;99.90;;;;;;5135500;27;20608;-67
2022/04/23 04:17:10;;;;;;;21.50;18.08;;;10.30;99.90;;;;;;5135144;27;20253;-68
2022/04/23 04:19:38;;;;;;;21.67;17.50;;;10.20;99.90;;;;;;5135404;27;20203;-68
2022/04/23 04:22:06;;;;;;;20.27;17.00;;;10.20;99.90;;;;;;5135127;27;20582;-67
2022/04/23 04:24:34;;;;;;;18.23;15.82;;;10.30;99.90;;;;;;5134927;27;20693;-68
2022/04/23 04:27:01;;;;;;;18.45;16.33;;;10.30;99.90;;;;;;5135074;27;20665;-68
2022/04/23 04:29:29;;;;;;;19.00;16.42;;;10.30;99.90;;;;;;5134794;27;20209;-68
2022/04/23 04:31:56;;;;;;;22.83;16.92;;;10.20;99.90;;;;;;5135079;27;20241;-68
2022/04/23 04:34:28;;;;;;;19.35;16.80;;;10.10;99.90;;;;;;5134984;27;20201;-68
2022/04/23 04:37:03;;;;;;;18.75;15.93;;;10.10;99.90;;;;;;5135213;27;20201;-68
2022/04/23 04:39:31;;;;;;;20.58;16.73;;;10.20;99.90;;;;;;5135080;27;20206;-68
2022/04/23 04:41:58;;;;;;;20.45;16.40;;;10.20;99.90;;;;;;5134705;27;20227;-68
2022/04/23 04:44:24;;;;;;;20.10;16.85;;;10.20;99.90;;;;;;5134863;27;20212;-67
2022/04/23 04:46:53;;;;;;;18.50;16.33;;;10.20;99.90;;;;;;5134873;27;20277;-68
2022/04/23 04:49:22;;;;;;;18.55;15.63;;;10.30;99.90;;;;;;5135113;27;20197;-68
2022/04/23 04:51:49;;;;;;;20.52;16.13;;;10.50;99.90;;;;;;5134904;27;20231;-68
2022/04/23 04:54:17;;;;;;;17.67;15.77;;;10.60;99.90;;;;;;5134395;27;20221;-68
2022/04/23 04:56:45;;;;;;;18.63;14.70;;;10.60;99.90;;;;;;5134813;27;20205;-68
2022/04/23 04:59:11;;;;;;;17.55;14.80;;;10.70;99.90;;;;;;5134849;27;20212;-68
2022/04/23 05:01:38;;;;;;;18.27;14.98;;;10.70;99.90;;;;;;5134612;27;20410;-68
2022/04/23 05:04:07;;;;;;;18.60;15.45;;;10.90;99.90;;;;;;5134476;27;20221;-68
2022/04/23 05:06:34;;;;;;;15.95;14.35;;;11.10;99.90;;;;;;5134540;27;20745;-68
2022/04/23 05:09:00;;;;;;;17.02;15.13;;;11.20;99.90;;;;;;5134652;27;20200;-68
2022/04/23 05:11:27;;;;;;;17.42;15.52;;;11.20;99.90;;;;;;5134923;27;20604;-68
2022/04/23 05:13:54;;;;;;;17.40;15.40;;;11.20;99.90;;;;;;5134024;28;20307;-68
2022/04/23 05:16:22;;;;;;;16.30;14.60;;;11.20;99.90;;;;;;5134537;28;20204;-68
2022/04/23 05:18:49;;;;;;;16.23;14.50;;;11.30;99.90;;;;;;5134575;28;20205;-68
2022/04/23 05:21:17;;;;;;;16.42;14.52;;;11.30;99.90;;;;;;5134471;27;20263;-68
2022/04/23 05:23:44;;;;;;;17.08;15.30;;;11.40;99.90;;;;;;5134018;27;20702;-67
2022/04/23 05:26:10;;;;;;;16.60;13.35;;;11.50;99.90;;;;;;5134473;28;20202;-68
2022/04/23 05:28:39;;;;;;;16.52;14.32;;;11.50;99.90;;;;;;5135147;27;20219;-68
2022/04/23 05:31:06;;;;;;;16.05;14.35;;;11.60;99.90;;;;;;5138745;27;20197;-68
2022/04/23 05:33:32;;;;;;;17.42;14.32;;;11.70;99.90;;;;;;5138106;27;20220;-68
2022/04/23 05:35:59;;;;;;;15.63;14.02;;;11.70;99.90;;;;;;5138923;27;20295;-68
2022/04/23 05:38:28;;;;;;;15.18;13.55;;;11.70;99.90;;;;;;5138554;27;20200;-68
2022/04/23 05:40:54;;;;;;;15.38;13.70;;;11.60;99.90;;;;;;5138327;27;20770;-68
2022/04/23 05:43:21;;;;;;;15.80;13.85;;;11.60;99.90;;;;;;5138165;27;20716;-68
2022/04/23 05:45:49;;;;;;;17.35;14.52;;;11.70;99.90;;;;;;5138431;27;20292;-68
2022/04/23 05:48:16;;;;;;;15.07;13.48;;;11.70;99.90;;;;;;5138340;27;20594;-68
2022/04/23 05:50:43;;;;;;;16.33;13.98;;;11.90;99.90;;;;;;5138315;27;20199;-68
2022/04/23 05:53:11;;;;;;;16.15;14.45;;;11.90;99.90;;;;;;5138045;27;20259;-68
2022/04/23 05:55:39;;;;;;;15.32;13.73;;;11.90;99.90;;;;;;5138135;27;20667;-68
2022/04/23 05:58:06;;;;;;;15.70;13.63;;;12.00;99.90;;;;;;5137893;27;20276;-68
2022/04/23 06:00:33;;;;;;;16.92;14.88;;;12.10;99.90;;;;;;5137738;27;20203;-68
2022/04/23 06:03:00;;;;;;;16.48;13.82;;;12.10;99.90;;;;;;5137727;27;20226;-68
2022/04/23 06:05:27;;;;;;;15.10;13.50;;;12.20;99.90;;;;;;5138030;27;20200;-68
2022/04/23 06:07:54;;;;;;;15.77;13.15;;;12.20;99.90;;;;;;5137783;27;20207;-68
2022/04/23 06:10:21;;;;;;;15.82;14.13;;;12.20;99.90;;;;;;5137876;27;20201;-68
2022/04/23 06:12:49;;;;;;;15.70;14.10;;;12.20;99.90;;;;;;5137935;27;20213;-68
2022/04/23 06:15:16;;;;;;;15.60;13.88;;;12.30;99.90;;;;;;5137668;27;20236;-68
2022/04/23 06:17:42;;;;;;;16.02;13.80;;;12.30;99.90;;;;;;5138083;27;20200;-68
2022/04/23 06:20:10;;;;;;;16.83;14.40;;;12.40;99.90;;;;;;5137712;27;20201;-68
2022/04/23 06:22:37;;;;;;;15.23;13.63;;;12.30;99.90;;;;;;5137560;27;20225;-68
2022/04/23 06:25:05;;;;;;;15.85;14.15;;;12.50;99.90;;;;;;5137249;27;20434;-68
2022/04/23 06:27:32;;;;;;;16.15;13.15;;;12.40;99.90;;;;;;5137638;27;20340;-68
2022/04/23 06:30:01;;;;;;;13.15;11.75;;;12.60;99.90;;;;;;5137243;27;20295;-68
2022/04/23 06:32:27;;;;;;;13.65;12.25;;;12.60;99.90;;;;;;5137256;27;20231;-69
2022/04/23 06:34:54;;;;;;;13.13;11.73;;;12.70;99.90;;;;;;5137350;27;20568;-68
2022/04/23 06:37:21;;;;;;;12.68;11.38;;;12.70;99.90;;;;;;5137389;27;20200;-67
2022/04/23 06:39:48;;;;;;;12.90;11.27;;;12.80;99.90;;;;;;5137161;27;20223;-68
2022/04/23 06:42:15;;;;;;;12.73;10.82;;;12.80;99.90;;;;;;5137163;27;20251;-68
2022/04/23 06:44:42;;;;;;;12.05;10.85;;;12.90;99.90;;;;;;5137075;27;20222;-68
2022/04/23 06:47:10;;;;;;;12.50;11.20;;;12.90;99.90;;;;;;5137120;27;20291;-68
2022/04/23 06:49:37;;;;;;;12.05;10.77;;;12.90;99.90;;;;;;5137177;27;20197;-68
2022/04/23 06:52:05;;;;;;;11.57;10.38;;;13.00;99.90;;;;;;5137034;27;20280;-68
2022/04/23 06:54:31;;;;;;;12.70;11.32;;;13.00;99.90;;;;;;5136977;27;20212;-68
2022/04/23 06:56:58;;;;;;;13.40;11.32;;;13.00;99.90;;;;;;5136967;27;20201;-68
2022/04/23 06:59:26;;;;;;;12.10;10.82;;;13.00;99.90;;;;;;5137274;27;20205;-67
2022/04/23 07:01:53;;;;;;;12.45;11.15;;;12.90;99.90;;;;;;5136716;27;20311;-68
2022/04/23 07:04:21;;;;;;;12.93;11.55;;;13.00;99.90;;;;;;5136789;27;20295;-68
2022/04/23 07:06:48;;;;;;;12.93;11.65;;;13.00;99.90;;;;;;5136824;27;20287;-68
2022/04/23 07:09:14;;;;;;;12.18;10.95;;;13.10;99.90;;;;;;5136786;27;20201;-68
2022/04/23 07:11:41;;;;;;;12.20;10.93;;;13.20;99.90;;;;;;5136802;27;20193;-68
2022/04/23 07:14:08;;;;;;;11.95;10.75;;;13.20;99.90;;;;;;5136577;27;20311;-68
2022/04/23 07:16:35;;;;;;;11.93;10.68;;;13.20;99.90;;;;;;5136640;27;20211;-68
2022/04/23 07:19:02;;;;;;;12.43;10.95;;;13.20;99.90;;;;;;5136293;27;20659;-68
2022/04/23 07:21:30;;;;;;;12.40;11.10;;;13.30;99.90;;;;;;5136510;27;20261;-68
2022/04/23 07:24:05;;;;;;;13.80;10.50;;;13.30;99.90;;;;;;5136070;27;20221;-68
2022/04/23 07:26:34;;;;;;;10.98;9.88;;;13.40;99.90;;;;;;5136368;27;20201;-68
2022/04/23 07:29:02;;;;;;;10.93;9.82;;;13.40;99.90;;;;;;5136304;27;20244;-68
2022/04/23 07:31:30;;;;;;;11.05;9.95;;;13.50;99.90;;;;;;5136266;27;20193;-68
2022/04/23 07:39:27;;;;;;;11.02;9.77;;;13.80;99.90;;;;;;5136458;27;20200;-68
2022/04/23 07:41:54;;;;;;;9.80;8.85;;;13.80;99.90;;;;;;5136099;27;20239;-68
2022/04/23 07:44:21;;;;;;;11.05;9.95;;;13.80;99.90;;;;;;5135947;27;20605;-68
2022/04/23 07:46:49;;;;;;;10.50;9.40;;;13.80;99.90;;;;;;5135788;27;20205;-68
2022/04/23 07:49:16;;;;;;;10.55;9.55;;;13.80;99.90;;;;;;5135867;27;20228;-68
2022/04/23 07:51:46;;;;;;;9.82;8.85;;;13.90;99.90;;;;;;5135287;27;20200;-68
2022/04/23 07:54:13;;;;;;;10.40;9.30;;;14.00;99.90;;;;;;5135495;27;20386;-67
2022/04/23 07:56:40;;;;;;;10.48;9.27;;;14.00;99.90;;;;;;5135756;27;20206;-68
2022/04/23 07:59:07;;;;;;;9.57;8.68;;;14.10;99.90;;;;;;5135614;27;20201;-68
2022/04/23 08:01:33;;;;;;;10.23;9.23;;;14.20;99.90;;;;;;5135820;27;20248;-68
2022/04/23 08:04:02;;;;;;;10.13;8.82;;;14.30;99.90;;;;;;5135165;27;20708;-68
2022/04/23 08:06:29;;;;;;;10.45;9.45;;;14.50;99.90;;;;;;5135660;27;20203;-68
2022/04/23 08:08:58;;;;;;;11.20;9.57;;;14.60;99.90;;;;;;5135596;27;20284;-69
2022/04/23 08:11:25;;;;;;;11.05;9.30;;;14.60;99.30;;;;;;5135526;27;20206;-68
2022/04/23 08:13:51;;;;;;;10.27;9.15;;;14.70;99.40;;;;;;5135134;27;20227;-68
2022/04/23 08:16:19;;;;;;;10.27;9.27;;;14.80;99.00;;;;;;5135320;27;20202;-68
2022/04/23 08:18:45;;;;;;;10.05;8.90;;;14.80;98.60;;;;;;5135708;27;20259;-68
2022/04/23 08:21:12;;;;;;;10.00;9.00;;;14.80;98.40;;;;;;5135330;27;20284;-68
2022/04/23 08:23:39;;;;;;;10.80;9.45;;;14.90;98.20;;;;;;5134841;27;20310;-68
2022/04/23 08:26:07;;;;;;;10.70;9.63;;;15.00;98.10;;;;;;5135018;27;20206;-69
2022/04/23 08:31:18;;;;;;;10.30;9.18;;;15.10;97.90;;;;;;5135529;27;20200;-68
2022/04/23 08:34:00;;;;;;;10.27;9.18;;;14.90;97.60;;;;;;5134785;27;20658;-68
2022/04/23 08:36:31;;;;;;;10.77;9.77;;;14.80;98.30;;;;;;5135138;27;20631;-68
2022/04/23 08:39:00;;;;;;;9.73;8.73;;;14.80;98.20;;;;;;5135047;27;20225;-68
2022/04/23 08:41:32;;;;;;;11.05;9.95;;;14.80;98.10;;;;;;5134846;27;20209;-68
2022/04/23 08:44:03;;;;;;;11.25;10.05;;;14.70;98.30;;;;;;5135062;27;20225;-68
2022/04/23 08:46:31;;;;;;;13.00;11.43;;;14.70;98.70;;;;;;5134786;27;20202;-69
2022/04/23 08:49:13;;;;;;;11.82;9.95;;;14.70;98.50;;;;;;5134893;27;20230;-68
2022/04/23 08:51:41;;;;;;;10.00;9.00;;;14.80;98.00;;;;;;5134963;27;20214;-68
2022/04/23 08:54:10;;;;;;;10.52;9.40;;;15.00;98.20;;;;;;5134725;27;20219;-68
2022/04/23 08:56:40;;;;;;;11.05;9.98;;;15.20;97.60;;;;;;5134806;27;20203;-68
2022/04/23 08:59:08;;;;;;;13.10;10.20;;;15.30;97.10;;;;;;5134921;27;20206;-68
2022/04/23 09:01:36;;;;;;;11.75;10.55;;;15.50;96.70;;;;;;5135388;27;20645;-68
2022/04/23 09:04:04;;;;;;;11.05;9.95;;;15.40;96.50;;;;;;5133597;27;20227;-68
2022/04/23 09:06:35;;;;;;;9.52;8.60;;;15.60;96.20;;;;;;5134719;27;20199;-68
2022/04/23 09:09:12;;;;;;;10.45;9.35;;;15.90;95.60;;;;;;5134680;27;20206;-68
2022/04/23 09:11:41;;;;;;;10.50;9.50;;;16.10;95.30;;;;;;5134648;27;20207;-68
2022/04/23 09:14:10;;;;;;;11.70;10.27;;;16.10;94.70;;;;;;5134135;28;20765;-68
2022/04/23 09:25:31;;;;;;;11.48;10.38;;;16.20;94.50;;;;;;5091477;28;20320;-68
2022/04/23 09:28:14;;;;;;;12.70;9.25;;;16.00;95.00;;;;;;5127025;27;20720;-68
2022/04/23 09:30:41;;;;;;;10.23;9.23;;;16.00;94.60;;;;;;5134213;28;20661;-68
2022/04/23 09:33:08;;;;;;;11.23;9.27;;;16.10;94.70;;;;;;5134226;28;20215;-68
2022/04/23 09:35:35;;;;;;;10.93;9.82;;;16.40;94.60;;;;;;5134715;28;20207;-68
2022/04/23 09:38:17;;;;;;;10.63;9.07;;;16.20;94.10;;;;;;5134358;28;20540;-68
2022/04/23 09:40:51;;;;;;;9.95;8.77;;;16.20;93.80;;;;;;5134319;28;20302;-68
2022/04/23 09:43:25;;;;;;;10.65;9.55;;;16.20;93.90;;;;;;5134099;28;20228;-68
2022/04/23 09:46:00;;;;;;;10.73;9.48;;;16.20;93.60;;;;;;5134372;27;20204;-68
2022/04/23 09:48:27;;;;;;;10.82;9.73;;;16.00;93.50;;;;;;5134573;28;20204;-68
2022/04/23 09:50:54;;;;;;;10.50;9.40;;;15.90;93.70;;;;;;5134242;28;20236;-68
2022/04/23 09:53:21;;;;;;;9.80;8.80;;;15.70;94.10;;;;;;5134082;28;20226;-68
2022/04/23 09:55:49;;;;;;;11.50;9.00;;;15.70;94.40;;;;;;5134005;28;20733;-68
2022/04/23 09:58:17;;;;;;;8.70;7.88;;;15.50;94.40;;;;;;5134450;28;20207;-68
2022/04/23 10:00:47;;;;;;;8.40;7.50;;;15.50;94.80;;;;;;5134150;28;20265;-68
2022/04/23 10:03:14;;;;;;;11.30;8.48;;;15.30;94.80;;;;;;5133620;28;20227;-68
2022/04/23 10:05:42;;;;;;;8.52;7.72;;;15.30;95.20;;;;;;5134278;28;20208;-68
2022/04/23 10:08:13;;;;;;;8.35;7.03;;;15.20;95.30;;;;;;5133814;28;20207;-68
2022/04/23 10:10:46;;;;;;;7.90;7.10;;;15.20;95.50;;;;;;5134085;28;20247;-68
2022/04/23 10:13:13;;;;;;;11.55;7.50;;;15.10;95.60;;;;;;5133720;28;20221;-68
2022/04/23 10:15:45;;;;;;;7.72;6.93;;;14.90;95.90;;;;;;5136268;27;20210;-68
2022/04/23 10:18:15;;;;;;;7.40;6.70;;;14.90;96.20;;;;;;5137863;27;20538;-68
2022/04/23 10:20:52;;;;;;;7.55;6.88;;;15.00;96.20;;;;;;5138070;27;20344;-68
2022/04/23 10:23:30;;;;;;;7.65;6.95;;;15.10;95.80;;;;;;5137493;27;20327;-68
2022/04/23 10:26:14;;;;;;;7.68;6.90;;;14.90;95.80;;;;;;5137748;27;20672;-68
2022/04/23 10:28:44;;;;;;;7.75;6.95;;;14.90;96.10;;;;;;5137461;27;20216;-68
2022/04/23 10:31:15;;;;;;;7.40;6.70;;;14.90;96.10;;;;;;5137516;27;20203;-68
2022/04/23 10:33:46;;;;;;;8.35;7.55;;;15.00;96.10;;;;;;5136943;27;20256;-68
2022/04/23 10:36:13;;;;;;;7.00;6.30;;;15.10;95.80;;;;;;5137361;27;20213;-68
2022/04/23 10:38:44;;;;;;;8.15;7.35;;;15.30;95.60;;;;;;5137396;27;20202;-68
2022/04/23 10:41:13;;;;;;;7.93;7.05;;;15.50;95.40;;;;;;5137281;27;20618;-68
2022/04/23 10:43:48;;;;;;;7.90;6.75;;;15.80;95.10;;;;;;5137302;27;20232;-68
2022/04/23 10:46:45;;;;;;;7.90;7.10;;;16.00;94.70;;;;;;5137284;27;20572;-68
2022/04/23 10:49:14;;;;;;;7.82;7.07;;;16.00;94.10;;;;;;5137244;27;20298;-68
2022/04/23 10:51:46;;;;;;;8.10;6.63;;;15.90;94.10;;;;;;5137121;27;20207;-68
2022/04/23 10:54:16;;;;;;;8.13;7.32;;;16.00;94.20;;;;;;5136606;27;20227;-68
2022/04/23 10:56:43;;;;;;;7.45;6.75;;;16.00;94.00;;;;;;5137087;27;20562;-68
2022/04/23 10:59:35;;;;;;;8.00;7.20;;;16.10;94.00;;;;;;5137028;27;20256;-68
2022/04/23 11:02:06;;;;;;;7.78;6.97;;;16.10;94.30;;;;;;5128400;27;20737;-68
2022/04/23 11:12:14;;;;;;;8.10;7.40;;;16.10;93.90;;;;;;5136778;27;20294;-68
2022/04/23 11:13:26;;;;;;;10.25;8.68;;;16.00;93.90;;;;;;5136305;27;20216;-68
2022/04/23 11:16:14;;;;;;;8.25;7.45;;;15.80;93.90;;;;;;5136998;27;20210;-68
2022/04/23 11:18:42;;;;;;;9.93;8.20;;;15.80;94.20;;;;;;5136516;27;20204;-68
2022/04/23 11:21:19;;;;;;;8.02;7.22;;;15.70;94.40;;;;;;5136571;27;20231;-68
2022/04/23 11:23:47;;;;;;;9.23;8.32;;;15.70;94.40;;;;;;5136335;27;20231;-68
2022/04/23 11:26:14;;;;;;;8.70;7.80;;;15.80;94.20;;;;;;5135485;27;20252;-68
2022/04/23 11:28:42;;;;;;;9.05;8.15;;;15.80;94.30;;;;;;5136197;27;20207;-68
2022/04/23 11:31:11;;;;;;;8.88;7.97;;;15.90;94.00;;;;;;5136315;27;20203;-69
2022/04/23 11:33:38;;;;;;;9.43;8.43;;;15.90;93.90;;;;;;5136056;27;20255;-68
2022/04/23 11:36:05;;;;;;;9.10;8.20;;;16.00;94.00;;;;;;5136450;27;20210;-68
2022/04/23 11:38:41;;;;;;;9.60;8.63;;;16.00;93.80;;;;;;5136102;27;20206;-68
2022/04/23 11:41:08;;;;;;;8.85;7.95;;;16.00;93.80;;;;;;5136233;27;20207;-68
2022/04/23 11:43:37;;;;;;;9.90;8.90;;;16.00;93.70;;;;;;5135634;27;20224;-69
2022/04/23 11:46:07;;;;;;;9.73;8.73;;;16.00;93.60;;;;;;5136198;27;20203;-68
2022/04/23 11:48:41;;;;;;;11.30;10.15;;;16.10;93.60;;;;;;5136086;27;20660;-68
2022/04/23 11:51:10;;;;;;;10.43;9.27;;;16.20;93.60;;;;;;5136023;27;20212;-68
2022/04/23 11:53:54;;;;;;;9.50;8.50;;;16.30;93.50;;;;;;5135634;27;20222;-68
2022/04/23 11:56:23;;;;;;;10.27;9.27;;;16.20;93.30;;;;;;5135804;27;20223;-68
2022/04/23 11:58:53;;;;;;;8.82;7.93;;;16.30;93.20;;;;;;5135651;27;20208;-68
2022/04/23 12:01:22;;;;;;;9.98;8.93;;;16.40;93.20;;;;;;5135780;27;20207;-68
2022/04/23 12:03:49;;;;;;;10.55;9.50;;;16.40;92.90;;;;;;5135601;27;20582;-68
2022/04/23 12:06:16;;;;;;;10.32;9.23;;;16.40;92.70;;;;;;5135648;27;20205;-68
2022/04/23 12:08:43;;;;;;;10.52;9.52;;;16.50;92.90;;;;;;5135524;27;20230;-68
2022/04/23 12:11:21;;;;;;;10.80;9.70;;;16.40;93.10;;;;;;5135602;27;20287;-68
2022/04/23 12:13:48;;;;;;;9.23;8.10;;;16.20;92.80;;;;;;5135276;27;20218;-68
2022/04/23 12:16:29;;;;;;;10.48;8.85;;;16.00;93.60;;;;;;5135449;27;20208;-68
2022/04/23 12:18:59;;;;;;;10.30;8.88;;;16.00;93.70;;;;;;5135348;27;20214;-68
2022/04/23 12:21:26;;;;;;;9.35;8.45;;;16.10;93.80;;;;;;5135267;27;20203;-68
2022/04/23 12:23:53;;;;;;;9.18;8.30;;;16.10;93.90;;;;;;5135277;27;20275;-68
2022/04/23 12:26:22;;;;;;;10.43;9.43;;;16.10;93.80;;;;;;5135275;27;20257;-68
2022/04/23 12:43:21;;;;;;;9.77;8.88;;;16.50;93.20;;;;;;5135022;27;20230;-68
2022/04/23 12:45:48;;;;;;;9.98;8.98;;;16.50;93.10;;;;;;5134986;27;20207;-68
2022/04/23 12:48:15;;;;;;;9.23;8.43;;;16.60;93.00;;;;;;5134834;27;20203;-68
2022/04/23 12:50:44;;;;;;;10.18;9.18;;;16.80;93.00;;;;;;5134911;27;20617;-68
2022/04/23 12:53:11;;;;;;;10.27;9.25;;;16.90;92.70;;;;;;5134798;27;20249;-68
2022/04/23 12:55:38;;;;;;;11.23;9.23;;;16.90;92.40;;;;;;5134821;27;20235;-68
2022/04/23 12:58:09;;;;;;;10.13;9.18;;;16.90;92.30;;;;;;5134939;27;20288;-68
2022/04/23 13:00:40;;;;;;;9.85;8.93;;;16.70;92.60;;;;;;5134713;27;20246;-68
2022/04/23 13:03:21;;;;;;;9.73;8.88;;;16.70;92.60;;;;;;5134504;27;20678;-68
2022/04/23 13:05:48;;;;;;;10.95;9.85;;;16.70;92.30;;;;;;5134683;27;20204;-68
2022/04/23 13:11:24;;;;;;;10.30;9.30;;;16.60;92.20;;;;;;5134661;27;20284;-68
2022/04/23 13:13:46;;;;;;;12.00;10.55;;;16.60;92.50;;;;;;5134308;27;20224;-68
2022/04/23 13:16:15;;;;;;;10.73;9.63;;;16.50;92.40;;;;;;5134611;27;20209;-68
2022/04/23 13:18:42;;;;;;;10.95;9.95;;;16.60;93.00;;;;;;5134418;28;20290;-68
2022/04/23 13:21:09;;;;;;;11.13;10.00;;;16.60;92.50;;;;;;5134452;28;20200;-68